Aviation Digital Data Service (ADDS)

Output produced by METARs form (1249 UTC 18 August 2017)
found at http://aviationweather.gov/adds/metars/
 
KEWN 181122Z 1812/1912 20004KT P6SM SKC 
     TEMPO 1812/1813 3SM BR 
     FM181700 20008KT P6SM VCTS BKN040CB 
     FM190000 20008KT P6SM SCT050 
     FM190800 21004KT 3SM BR BKN025